CheckWX is a tool to help pilots better visualize weather data.  It is not intended as a substitute for an official pre-flight weather briefing.

20:35:48 UTC

DFFD METAR
Ouagadougou Airport
Ouagadougou, Burkina Faso
Current

36 mins ago

DFFD 182000Z 06005KT 040V100 8000 NSC 30/M03 Q1011 NOSIG
Observed
Feb-18 @ 20:00 UTC
Wind
  • 060° at 5 KTS
Visibility
7,998 meters
Flight Rules
MVFR
Cloud Levels
  • Clear skies
Temperature
30°C / 86°F
Dewpoint
-3°C / 27°F
Humidity
11%
Altimeter
29.85" Hg
Pressure
1010.92 hPa
Previous

3 hours ago

DFFD 181800Z 02006KT 6000 NSC 33/M03 Q1009 NOSIG
Observed
Feb-18 @ 18:00 UTC
Wind
  • 020° at 6 KTS
Visibility
6,003 meters
Flight Rules
MVFR
Cloud Levels
  • Clear skies
Temperature
33°C / 91°F
Dewpoint
-3°C / 27°F
Humidity
10%
Altimeter
29.79" Hg
Pressure
1008.92 hPa
Previous

4 hours ago

DFFD 181700Z 03008KT 350V050 8000 NSC 36/M04 Q1009 NOSIG
Observed
Feb-18 @ 17:00 UTC
Wind
  • 030° at 8 KTS
Visibility
7,998 meters
Flight Rules
MVFR
Cloud Levels
  • Clear skies
Temperature
36°C / 97°F
Dewpoint
-4°C / 25°F
Humidity
7%
Altimeter
29.79" Hg
Pressure
1008.92 hPa